createdAt,value
2023-05-05T00:03:15.116Z,87.83
2023-05-05T00:08:19.274Z,88.07
2023-05-05T00:13:24.669Z,88.71
2023-05-05T00:18:28.421Z,88.34
2023-05-05T00:23:32.211Z,87.90
2023-05-05T00:28:37.045Z,87.70
2023-05-05T00:33:40.524Z,87.24
2023-05-05T00:38:44.052Z,87.50
2023-05-05T00:43:48.970Z,87.88
2023-05-05T00:48:53.355Z,87.09
2023-05-05T00:53:57.277Z,87.47
2023-05-05T00:59:03.914Z,87.85
2023-05-05T01:04:07.355Z,87.46
2023-05-05T01:09:19.664Z,86.65
2023-05-05T01:14:29.694Z,85.90
2023-05-05T01:20:00.213Z,84.77
2023-05-05T01:25:18.025Z,83.62
2023-05-05T01:30:40.687Z,83.81
2023-05-05T01:35:49.435Z,83.69
2023-05-05T01:40:59.109Z,83.79
2023-05-05T01:46:04.646Z,83.38
2023-05-05T01:51:11.635Z,83.50
2023-05-05T01:56:16.951Z,82.59
2023-05-05T02:01:22.748Z,83.30
2023-05-05T02:06:32.672Z,83.28
2023-05-05T02:11:39.158Z,83.93
2023-05-05T02:16:44.280Z,84.62
2023-05-05T02:21:49.157Z,83.24
2023-05-05T02:26:54.462Z,83.12
2023-05-05T02:32:03.682Z,83.10
2023-05-05T02:37:12.182Z,80.97
2023-05-05T02:42:21.741Z,81.99
2023-05-05T02:47:35.631Z,82.56
2023-05-05T02:52:41.421Z,82.62
2023-05-05T02:57:51.952Z,82.74
2023-05-05T03:03:06.854Z,82.77
2023-05-05T03:08:18.548Z,82.45
2023-05-05T03:13:25.555Z,81.39
2023-05-05T03:18:31.402Z,81.58
2023-05-05T03:23:39.320Z,82.06
2023-05-05T03:28:48.856Z,82.29
2023-05-05T03:33:57.857Z,83.08
2023-05-05T03:39:07.627Z,83.82
2023-05-05T03:44:11.475Z,84.93
2023-05-05T03:49:15.314Z,86.04
2023-05-05T03:54:22.273Z,87.01
2023-05-05T03:59:26.075Z,87.89
2023-05-05T04:04:29.964Z,88.46
2023-05-05T04:09:35.538Z,89.20
2023-05-05T04:14:40.128Z,88.90
2023-05-05T04:19:45.002Z,89.37
2023-05-05T04:24:49.970Z,90.14
2023-05-05T04:29:54.196Z,90.52
2023-05-05T04:34:57.948Z,90.41
2023-05-05T04:40:03.439Z,90.46
2023-05-05T04:45:10.320Z,90.75
2023-05-05T04:50:14.881Z,90.07
2023-05-05T04:55:19.937Z,89.75
2023-05-05T05:00:24.116Z,89.44
2023-05-05T05:05:27.835Z,89.27
2023-05-05T05:10:33.073Z,88.05
2023-05-05T05:15:38.121Z,86.71
2023-05-05T05:20:42.118Z,86.61
2023-05-05T05:25:47.280Z,86.12
2023-05-05T05:30:53.738Z,84.53
2023-05-05T05:35:57.760Z,82.48
2023-05-05T05:41:07.459Z,80.71
2023-05-05T05:46:12.628Z,81.54
2023-05-05T05:51:18.185Z,81.33
2023-05-05T05:56:23.713Z,80.79
2023-05-05T06:01:28.009Z,81.21
2023-05-05T06:06:32.143Z,80.44
2023-05-05T06:11:37.279Z,79.49
2023-05-05T06:16:41.146Z,79.83
2023-05-05T06:21:48.736Z,80.17
2023-05-05T06:26:53.935Z,77.62
2023-05-05T06:31:57.330Z,75.63
2023-05-05T06:37:00.724Z,73.35
2023-05-05T06:42:05.604Z,72.88
2023-05-05T06:47:09.294Z,73.28
2023-05-05T06:52:13.140Z,70.67
2023-05-05T06:57:18.248Z,71.86
2023-05-05T07:02:22.534Z,67.70
2023-05-05T07:07:27.060Z,67.49
2023-05-05T07:12:32.208Z,67.62
2023-05-05T07:17:35.853Z,67.36
2023-05-05T07:22:39.244Z,63.59
2023-05-05T07:27:44.098Z,64.17
2023-05-05T07:32:47.818Z,64.24
2023-05-05T07:37:51.494Z,61.39
2023-05-05T07:42:56.223Z,62.15
2023-05-05T07:47:59.698Z,62.35
2023-05-05T07:53:13.563Z,61.42
2023-05-05T07:58:19.160Z,60.83
2023-05-05T08:03:24.849Z,61.18
2023-05-05T08:08:28.406Z,60.10
2023-05-05T08:13:33.514Z,60.52
2023-05-05T08:18:38.472Z,62.31
2023-05-05T08:23:42.164Z,60.27
2023-05-05T08:28:47.226Z,62.21
2023-05-05T08:33:50.936Z,60.55
2023-05-05T08:38:54.645Z,57.95
2023-05-05T08:43:59.843Z,56.17
2023-05-05T08:49:04.899Z,59.69
2023-05-05T08:54:11.766Z,61.15
2023-05-05T08:59:20.136Z,60.73
2023-05-05T09:04:24.129Z,60.54
2023-05-05T09:09:28.386Z,56.75
2023-05-05T09:14:33.197Z,55.95
2023-05-05T09:19:57.988Z,55.69
2023-05-05T09:25:01.623Z,53.32
2023-05-05T09:30:09.727Z,52.69
2023-05-05T09:35:13.308Z,51.75
2023-05-05T09:40:18.950Z,54.37
2023-05-05T09:45:28.467Z,55.74
2023-05-05T09:50:43.490Z,52.07
2023-05-05T09:55:56.975Z,52.84
2023-05-05T10:01:02.111Z,53.72
2023-05-05T10:06:07.925Z,54.37
2023-05-05T10:11:11.620Z,50.93
2023-05-05T10:16:19.606Z,54.59
2023-05-05T10:21:24.656Z,52.67
2023-05-05T10:26:39.386Z,51.71
2023-05-05T10:32:18.830Z,53.64
2023-05-05T10:37:38.868Z,55.10
2023-05-05T10:42:44.247Z,53.68
2023-05-05T10:47:53.292Z,55.48
2023-05-05T10:53:18.746Z,54.94
2023-05-05T10:58:55.462Z,53.47
2023-05-05T11:04:50.217Z,51.35
2023-05-05T11:10:06.240Z,50.29
2023-05-05T11:21:24.501Z,50.05
2023-05-05T11:26:51.368Z,54.78
2023-05-05T11:32:12.612Z,55.63
2023-05-05T11:37:17.674Z,50.78
2023-05-05T11:42:26.766Z,49.50
2023-05-05T11:47:32.674Z,48.54
2023-05-05T11:52:37.870Z,49.66
2023-05-05T11:57:41.598Z,52.93
2023-05-05T12:02:45.237Z,53.05
2023-05-05T12:07:57.684Z,51.89
2023-05-05T12:13:01.147Z,51.29
2023-05-05T12:18:06.534Z,53.18
2023-05-05T12:23:12.873Z,50.82
2023-05-05T12:28:16.695Z,49.99
2023-05-05T12:33:20.667Z,50.40
2023-05-05T12:38:25.539Z,52.36
2023-05-05T12:43:30.854Z,49.72
2023-05-05T12:48:35.232Z,50.00
2023-05-05T12:53:40.113Z,46.81
2023-05-05T12:58:49.551Z,50.66
2023-05-05T13:04:10.014Z,51.66
2023-05-05T13:09:25.965Z,50.22
2023-05-05T13:14:30.736Z,48.43
2023-05-05T13:19:35.615Z,48.58
2023-05-05T13:24:50.605Z,49.64
2023-05-05T13:29:56.050Z,49.57
2023-05-05T13:34:59.504Z,51.16
2023-05-05T13:40:04.683Z,50.23
2023-05-05T13:45:09.322Z,51.19
2023-05-05T13:50:15.698Z,52.08
2023-05-05T13:56:26.664Z,53.37
2023-05-05T14:02:25.193Z,53.13
2023-05-05T14:07:41.408Z,53.17
2023-05-05T14:12:54.883Z,52.53
2023-05-05T14:18:11.689Z,50.99
2023-05-05T14:23:18.757Z,51.57
2023-05-05T14:28:34.348Z,53.42
2023-05-05T14:33:58.365Z,53.34
2023-05-05T14:39:14.688Z,54.20
2023-05-05T14:44:22.791Z,55.16
2023-05-05T14:49:30.741Z,55.10
2023-05-05T14:54:40.763Z,54.81
2023-05-05T15:00:06.297Z,54.73
2023-05-05T15:11:47.827Z,54.19
2023-05-05T15:16:53.190Z,53.90
2023-05-05T15:21:56.570Z,54.72
2023-05-05T15:27:00.034Z,54.96
2023-05-05T15:32:05.424Z,54.81
2023-05-05T15:37:09.332Z,55.59
2023-05-05T15:42:13.204Z,56.19
2023-05-05T15:47:18.172Z,56.70
2023-05-05T15:52:21.789Z,55.20
2023-05-05T15:57:25.301Z,55.18
2023-05-05T16:02:30.228Z,55.06
2023-05-05T16:07:33.881Z,54.66
2023-05-05T16:12:37.342Z,55.38
2023-05-05T16:17:42.392Z,55.51
2023-05-05T16:22:46.041Z,55.79
2023-05-05T16:27:49.906Z,55.88
2023-05-05T16:32:54.971Z,56.21
2023-05-05T16:37:58.660Z,55.94
2023-05-05T16:43:02.043Z,56.07
2023-05-05T16:48:09.233Z,56.43
2023-05-05T16:53:12.792Z,56.96
2023-05-05T16:58:16.513Z,57.06
2023-05-05T17:03:22.580Z,56.41
2023-05-05T17:08:26.054Z,57.73
2023-05-05T17:13:29.810Z,58.62
2023-05-05T17:18:35.253Z,58.82
2023-05-05T17:23:38.676Z,59.23
2023-05-05T17:28:42.376Z,59.84
2023-05-05T17:33:47.516Z,59.82
2023-05-05T17:38:51.028Z,59.98
2023-05-05T17:43:54.427Z,59.98
2023-05-05T17:49:02.809Z,60.18
2023-05-05T17:54:07.859Z,60.37
2023-05-05T17:59:11.365Z,60.65
2023-05-05T18:04:16.310Z,61.19
2023-05-05T18:09:20.732Z,62.38
2023-05-05T18:14:25.148Z,63.53
2023-05-05T18:19:30.066Z,63.17
2023-05-05T18:24:33.748Z,63.17
2023-05-05T18:29:37.730Z,64.37
2023-05-05T18:34:42.904Z,64.41
2023-05-05T18:39:46.636Z,65.73
2023-05-05T18:44:50.129Z,65.87
2023-05-05T18:49:54.968Z,66.90
2023-05-05T18:54:59.703Z,66.66
2023-05-05T19:00:03.684Z,67.34
2023-05-05T19:05:11.684Z,66.85
2023-05-05T19:10:15.855Z,68.14
2023-05-05T19:15:19.806Z,69.05
2023-05-05T19:20:24.733Z,67.85
2023-05-05T19:25:28.232Z,67.42
2023-05-05T19:30:31.665Z,67.16
2023-05-05T19:35:36.552Z,65.44
2023-05-05T19:40:40.708Z,66.46
2023-05-05T19:45:44.446Z,65.99
2023-05-05T19:50:49.595Z,67.15
2023-05-05T19:55:53.116Z,67.03
2023-05-05T20:00:56.796Z,68.39
2023-05-05T20:06:02.148Z,67.57
2023-05-05T20:11:05.567Z,68.49
2023-05-05T20:16:09.962Z,68.29
2023-05-05T20:21:15.007Z,68.68
2023-05-05T20:26:18.644Z,69.54
2023-05-05T20:31:22.151Z,69.73
2023-05-05T20:36:27.803Z,69.39
2023-05-05T20:41:31.462Z,70.12
2023-05-05T20:46:34.869Z,71.67
2023-05-05T20:51:39.703Z,70.79
2023-05-05T20:56:43.232Z,70.00
2023-05-05T21:01:46.701Z,70.93
2023-05-05T21:06:51.803Z,70.09
2023-05-05T21:11:55.679Z,68.94
2023-05-05T21:16:59.526Z,68.86
2023-05-05T21:22:04.921Z,68.63
2023-05-05T21:27:08.338Z,68.46
2023-05-05T21:32:12.818Z,68.40
2023-05-05T21:37:17.729Z,69.33
2023-05-05T21:42:21.190Z,70.02
2023-05-05T21:47:24.725Z,71.81
2023-05-05T21:52:29.608Z,70.06
2023-05-05T21:57:33.483Z,69.05
2023-05-05T22:02:37.099Z,69.06
2023-05-05T22:07:42.097Z,69.37
2023-05-05T22:12:45.896Z,69.43
2023-05-05T22:17:49.447Z,69.28
2023-05-05T22:22:54.883Z,69.45
2023-05-05T22:27:58.639Z,69.71
2023-05-05T22:33:02.106Z,69.37
2023-05-05T22:38:07.463Z,69.09
2023-05-05T22:43:10.968Z,68.71
2023-05-05T22:48:15.103Z,68.88
2023-05-05T22:53:20.090Z,68.87
2023-05-05T22:58:23.514Z,68.83
2023-05-05T23:03:27.220Z,68.65
2023-05-05T23:08:32.072Z,68.81
2023-05-05T23:13:35.612Z,69.24
2023-05-05T23:18:39.286Z,69.70
2023-05-05T23:23:44.233Z,69.20
2023-05-05T23:28:48.053Z,69.66
2023-05-05T23:33:51.514Z,69.50
2023-05-05T23:38:56.450Z,69.52
2023-05-05T23:43:59.896Z,68.95
2023-05-05T23:49:03.665Z,68.78
2023-05-05T23:54:08.505Z,68.47
2023-05-05T23:59:12.131Z,69.46
